Time;durP1;ratioP1;P1;durP2;ratioP2;P2;SDS_P1;SDS_P2;PMS_P1;PMS_P2;Temp;Humidity;BMP_temperature;BMP_pressure;BME280_temperature;BME280_humidity;BME280_pressure;Samples;Min_cycle;Max_cycle;Signal;HPM_P1;HPM_P2
2022/01/09 00:01:32;;;;;;;0.70;0.70;;;;;;;;;;6163458;23;20194;-85
2022/01/09 00:07:01;;;;;;;0.77;0.77;;;;;;;;;;6161827;23;20178;-84
2022/01/09 00:09:32;;;;;;;1.30;0.90;;;;;;;;;;6164788;23;20206;-85
2022/01/09 00:12:12;;;;;;;0.70;0.70;;;;;;;;;;6163695;23;20182;-83
2022/01/09 00:14:42;;;;;;;0.80;0.80;;;;;;;;;;6164924;23;20194;-86
2022/01/09 00:17:15;;;;;;;0.80;0.80;;;;;;;;;;6164097;23;20170;-85
2022/01/09 00:19:42;;;;;;;1.00;0.90;;;;;;;;;;6164719;23;20194;-85
2022/01/09 00:22:10;;;;;;;1.03;0.70;;;;;;;;;;6163584;23;20178;-85
2022/01/09 00:24:37;;;;;;;1.07;0.80;;;;;;;;;;6164778;23;20194;-85
2022/01/09 00:27:13;;;;;;;0.70;0.70;;;;;;;;;;6162648;23;20233;-85
2022/01/09 00:29:40;;;;;;;0.60;0.60;;;;;;;;;;6165301;23;20194;-84
2022/01/09 00:32:11;;;;;;;0.80;0.80;;;;;;;;;;6164151;23;20186;-85
2022/01/09 00:34:40;;;;;;;0.93;0.77;;;;;;;;;;6164784;23;20205;-83
2022/01/09 00:37:13;;;;;;;0.70;0.70;;;;;;;;;;6164499;23;20237;-85
2022/01/09 00:39:41;;;;;;;0.70;0.70;;;;;;;;;;6155007;23;20233;-85
2022/01/09 00:42:08;;;;;;;0.70;0.70;;;;;;;;;;6133582;23;20171;-85
2022/01/09 00:44:35;;;;;;;0.60;0.60;;;;;;;;;;6135614;23;20175;-85
2022/01/09 00:47:03;;;;;;;0.80;0.80;;;;;;;;;;6135646;23;20175;-85
2022/01/09 00:49:30;;;;;;;0.80;0.80;;;;;;;;;;6134672;23;20195;-85
2022/01/09 00:52:02;;;;;;;0.70;0.70;;;;;;;;;;6133332;23;20600;-85
2022/01/09 00:54:29;;;;;;;0.70;0.70;;;;;;;;;;6135029;23;20171;-85
2022/01/09 00:56:56;;;;;;;0.73;0.73;;;;;;;;;;6134293;23;20238;-84
2022/01/09 00:59:27;;;;;;;0.70;0.70;;;;;;;;;;6135034;23;20222;-86
2022/01/09 01:01:55;;;;;;;0.70;0.70;;;;;;;;;;6133946;23;20186;-84
2022/01/09 01:04:22;;;;;;;0.67;0.67;;;;;;;;;;6134552;23;20174;-85
2022/01/09 01:06:51;;;;;;;0.70;0.70;;;;;;;;;;6135744;23;20178;-85
2022/01/09 01:09:21;;;;;;;0.70;0.70;;;;;;;;;;6136052;23;20195;-85
2022/01/09 01:11:48;;;;;;;0.60;0.60;;;;;;;;;;6133975;23;20619;-85
2022/01/09 01:14:15;;;;;;;0.60;0.60;;;;;;;;;;6135534;23;20268;-85
2022/01/09 01:16:43;;;;;;;0.60;0.60;;;;;;;;;;6135860;23;20180;-85
2022/01/09 01:19:11;;;;;;;0.60;0.60;;;;;;;;;;6135087;23;20246;-86
2022/01/09 01:21:38;;;;;;;0.80;0.80;;;;;;;;;;6135168;23;20191;-85
2022/01/09 01:26:54;;;;;;;0.53;0.53;;;;;;;;;;6132187;23;20175;-85
2022/01/09 01:29:30;;;;;;;0.60;0.60;;;;;;;;;;6139214;23;20221;-85
2022/01/09 01:32:06;;;;;;;0.70;0.70;;;;;;;;;;6139682;23;20241;-85
2022/01/09 01:34:34;;;;;;;0.70;0.70;;;;;;;;;;6138939;23;20221;-86
2022/01/09 01:37:01;;;;;;;0.53;0.53;;;;;;;;;;6139498;23;20183;-82
2022/01/09 01:42:16;;;;;;;0.70;0.70;;;;;;;;;;6140133;23;20201;-84
2022/01/09 01:44:50;;;;;;;0.70;0.70;;;;;;;;;;6148114;23;20167;-85
2022/01/09 01:47:26;;;;;;;0.53;0.53;;;;;;;;;;6144629;23;20180;-85
2022/01/09 01:49:56;;;;;;;0.63;0.63;;;;;;;;;;6135698;23;20195;-85
2022/01/09 01:52:33;;;;;;;0.70;0.70;;;;;;;;;;6135225;23;20219;-85
2022/01/09 01:55:03;;;;;;;0.50;0.50;;;;;;;;;;6135018;23;20185;-85
2022/01/09 01:57:37;;;;;;;0.60;0.60;;;;;;;;;;6135645;23;20175;-84
2022/01/09 02:00:05;;;;;;;0.60;0.60;;;;;;;;;;6134674;23;20197;-84
2022/01/09 02:02:34;;;;;;;0.53;0.53;;;;;;;;;;6135180;23;20171;-84
2022/01/09 02:05:02;;;;;;;0.50;0.50;;;;;;;;;;6135469;23;20185;-86
2022/01/09 02:07:41;;;;;;;0.50;0.50;;;;;;;;;;6135188;23;20467;-85
2022/01/09 02:10:11;;;;;;;0.60;0.60;;;;;;;;;;6139347;23;20234;-86
2022/01/09 02:12:41;;;;;;;0.57;0.57;;;;;;;;;;6132250;23;20266;-86
2022/01/09 02:15:28;;;;;;;0.57;0.57;;;;;;;;;;6146448;23;20214;-87
2022/01/09 02:17:55;;;;;;;0.60;0.60;;;;;;;;;;6139826;23;20175;-85
2022/01/09 02:23:10;;;;;;;0.60;0.60;;;;;;;;;;6126863;23;20172;-85
2022/01/09 02:25:41;;;;;;;0.60;0.60;;;;;;;;;;6127484;23;20230;-85
2022/01/09 02:28:09;;;;;;;0.50;0.50;;;;;;;;;;6128142;23;20226;-84
2022/01/09 02:30:37;;;;;;;0.60;0.60;;;;;;;;;;6127766;23;20175;-85
2022/01/09 02:33:05;;;;;;;0.60;0.60;;;;;;;;;;6128937;23;20258;-85
2022/01/09 02:35:34;;;;;;;0.60;0.60;;;;;;;;;;6129723;23;20236;-84
2022/01/09 02:38:02;;;;;;;0.60;0.60;;;;;;;;;;6129880;23;20168;-84
2022/01/09 02:40:35;;;;;;;0.60;0.60;;;;;;;;;;6128984;23;20287;-85
2022/01/09 02:43:05;;;;;;;0.63;0.63;;;;;;;;;;6130141;23;20171;-84
2022/01/09 02:45:32;;;;;;;0.70;0.70;;;;;;;;;;6130462;23;20206;-85
2022/01/09 02:48:02;;;;;;;0.60;0.60;;;;;;;;;;6130879;23;20179;-85
2022/01/09 02:50:38;;;;;;;0.60;0.60;;;;;;;;;;6130161;23;20191;-85
2022/01/09 02:53:20;;;;;;;0.60;0.60;;;;;;;;;;6130783;23;20651;-85
2022/01/09 02:55:50;;;;;;;0.70;0.70;;;;;;;;;;6130119;23;20250;-85
2022/01/09 02:58:17;;;;;;;0.60;0.60;;;;;;;;;;6130377;23;20203;-85
2022/01/09 03:00:46;;;;;;;0.60;0.60;;;;;;;;;;6129621;23;20175;-85
2022/01/09 03:03:13;;;;;;;0.60;0.60;;;;;;;;;;6130995;23;20171;-83
2022/01/09 03:05:41;;;;;;;0.60;0.60;;;;;;;;;;6130630;23;20203;-85
2022/01/09 03:08:09;;;;;;;0.60;0.60;;;;;;;;;;6131402;23;20184;-85
2022/01/09 03:10:43;;;;;;;0.60;0.60;;;;;;;;;;6130501;23;20242;-84
2022/01/09 03:13:10;;;;;;;0.60;0.60;;;;;;;;;;6131323;23;20184;-85
2022/01/09 03:15:37;;;;;;;0.60;0.60;;;;;;;;;;6132001;23;20175;-85
2022/01/09 03:18:05;;;;;;;0.53;0.53;;;;;;;;;;6132900;23;20175;-86
2022/01/09 03:20:32;;;;;;;0.60;0.60;;;;;;;;;;6132075;23;20171;-83
2022/01/09 03:23:01;;;;;;;0.60;0.60;;;;;;;;;;6131614;23;20167;-85
2022/01/09 03:25:34;;;;;;;0.60;0.60;;;;;;;;;;6131434;23;20171;-85
2022/01/09 03:28:02;;;;;;;0.60;0.60;;;;;;;;;;6131578;23;20163;-85
2022/01/09 03:30:32;;;;;;;0.60;0.60;;;;;;;;;;6130593;23;20254;-84
2022/01/09 03:33:02;;;;;;;0.50;0.50;;;;;;;;;;6130519;23;20663;-84
2022/01/09 03:35:31;;;;;;;0.60;0.60;;;;;;;;;;6130656;23;20176;-85
2022/01/09 03:37:59;;;;;;;0.60;0.60;;;;;;;;;;6131068;23;20175;-85
2022/01/09 07:53:23;;;;;;;2.67;1.57;;;;;;;;;;6149501;23;20202;-85
2022/01/09 07:55:54;;;;;;;2.10;1.53;;;;;;;;;;6175907;23;20174;-85
2022/01/09 07:58:51;;;;;;;3.03;1.90;;;;;;;;;;6161943;23;20179;-85
2022/01/09 08:01:27;;;;;;;3.53;1.80;;;;;;;;;;6125459;23;20256;-87
2022/01/09 08:04:01;;;;;;;3.97;1.60;;;;;;;;;;6129272;23;20163;-86
2022/01/09 08:06:36;;;;;;;2.77;1.50;;;;;;;;;;6130152;23;20167;-86
2022/01/09 08:09:21;;;;;;;4.00;1.80;;;;;;;;;;6126589;23;20194;-86
2022/01/09 08:11:50;;;;;;;4.77;1.80;;;;;;;;;;6121491;23;20183;-86
2022/01/09 08:32:15;;;;;;;;;;;;;;;;;;;;;
2022/01/09 08:34:47;;;;;;;6.10;2.00;;;;;;;;;;6089571;23;20165;-88
2022/01/09 08:37:21;;;;;;;3.33;1.57;;;;;;;;;;6098772;23;20254;-87
2022/01/09 08:39:48;;;;;;;3.77;1.83;;;;;;;;;;6097443;23;20196;-86
2022/01/09 08:45:20;;;;;;;4.47;2.50;;;;;;;;;;6082918;23;20183;-85
2022/01/09 08:48:03;;;;;;;4.60;2.03;;;;;;;;;;6093240;23;20191;-85
2022/01/09 08:59:22;;;;;;;4.80;1.77;;;;;;;;;;6024277;23;20202;-86
2022/01/09 09:01:55;;;;;;;3.00;1.77;;;;;;;;;;6165256;23;20166;-82
2022/01/09 09:04:35;;;;;;;5.37;2.00;;;;;;;;;;6186359;23;20166;-85
2022/01/09 09:07:12;;;;;;;5.70;2.17;;;;;;;;;;6187292;23;20174;-84
2022/01/09 09:09:41;;;;;;;6.97;2.00;;;;;;;;;;6189803;23;20217;-83
2022/01/09 09:12:09;;;;;;;5.27;2.10;;;;;;;;;;6188209;23;20242;-84
2022/01/09 09:14:38;;;;;;;4.30;1.90;;;;;;;;;;6190950;23;20193;-84
2022/01/09 09:17:10;;;;;;;4.77;1.73;;;;;;;;;;6189880;23;20181;-84
2022/01/09 09:19:39;;;;;;;5.30;1.73;;;;;;;;;;6187832;23;20194;-84
2022/01/09 09:22:17;;;;;;;2.53;1.53;;;;;;;;;;6183146;23;20170;-84
2022/01/09 09:33:41;;;;;;;5.90;1.60;;;;;;;;;;6192874;23;20193;-86
2022/01/09 09:36:12;;;;;;;4.20;1.70;;;;;;;;;;6096356;23;20168;-84
2022/01/09 09:44:18;;;;;;;7.83;2.27;;;;;;;;;;6149386;23;20177;-87
2022/01/09 09:49:53;;;;;;;4.23;1.60;;;;;;;;;;6155523;23;20201;-90
2022/01/09 09:58:05;;;;;;;5.70;2.10;;;;;;;;;;6180841;23;20184;-89
2022/01/09 10:07:12;;;;;;;4.37;1.97;;;;;;;;;;5984181;24;20206;-89
2022/01/09 10:10:14;;;;;;;4.97;2.10;;;;;;;;;;6054632;23;20220;-89
2022/01/09 10:12:42;;;;;;;4.77;2.07;;;;;;;;;;6216073;23;20203;-88
2022/01/09 10:15:16;;;;;;;4.07;2.20;;;;;;;;;;6217911;23;20185;-88
2022/01/09 10:17:46;;;;;;;3.83;1.80;;;;;;;;;;6217560;23;20173;-89
2022/01/09 10:20:41;;;;;;;4.70;1.60;;;;;;;;;;6218003;23;20261;-89
2022/01/09 10:23:24;;;;;;;5.37;1.70;;;;;;;;;;6212343;23;20192;-89
2022/01/09 10:25:52;;;;;;;4.83;1.70;;;;;;;;;;6218604;23;20192;-87
2022/01/09 10:28:21;;;;;;;6.23;1.70;;;;;;;;;;6217072;23;20173;-86
2022/01/09 10:30:50;;;;;;;5.03;1.40;;;;;;;;;;6216389;23;20213;-86
2022/01/09 10:33:18;;;;;;;2.90;1.67;;;;;;;;;;6218584;23;20204;-86
2022/01/09 10:35:48;;;;;;;3.23;1.43;;;;;;;;;;6216347;23;20225;-85
2022/01/09 10:38:19;;;;;;;1.40;1.10;;;;;;;;;;6217960;23;20165;-84
2022/01/09 10:40:49;;;;;;;2.30;1.60;;;;;;;;;;6216446;23;20199;-84
2022/01/09 10:43:17;;;;;;;3.83;1.60;;;;;;;;;;6219541;23;20170;-86
2022/01/09 10:45:49;;;;;;;6.20;1.83;;;;;;;;;;6216803;23;20196;-85
2022/01/09 10:48:18;;;;;;;2.83;1.63;;;;;;;;;;6216509;23;20246;-86
2022/01/09 10:50:55;;;;;;;7.13;2.17;;;;;;;;;;6214920;23;20216;-87
2022/01/09 10:53:29;;;;;;;7.27;1.90;;;;;;;;;;6216468;23;20203;-86
2022/01/09 10:56:10;;;;;;;4.47;1.93;;;;;;;;;;6216637;23;20165;-85
2022/01/09 10:58:38;;;;;;;6.83;1.97;;;;;;;;;;6219220;23;20173;-87
2022/01/09 11:01:20;;;;;;;4.00;1.97;;;;;;;;;;6216209;23;20192;-85
2022/01/09 11:03:51;;;;;;;4.63;2.43;;;;;;;;;;6216567;23;20170;-87
2022/01/09 11:06:22;;;;;;;3.30;1.73;;;;;;;;;;6217743;23;20177;-87
2022/01/09 11:08:51;;;;;;;5.80;2.10;;;;;;;;;;6219392;23;20180;-87
2022/01/09 11:11:27;;;;;;;3.63;2.00;;;;;;;;;;6214579;23;20181;-87
2022/01/09 11:13:56;;;;;;;3.57;1.57;;;;;;;;;;6216423;23;20185;-85
2022/01/09 11:16:44;;;;;;;4.00;1.60;;;;;;;;;;6223188;23;20228;-89
2022/01/09 11:19:12;;;;;;;3.37;1.80;;;;;;;;;;6217213;23;20190;-89
2022/01/09 11:21:44;;;;;;;2.53;1.60;;;;;;;;;;6215842;23;20170;-89
2022/01/09 11:24:26;;;;;;;5.37;1.60;;;;;;;;;;6217065;23;20162;-90
2022/01/09 11:26:59;;;;;;;4.77;1.60;;;;;;;;;;6191909;23;20173;-90
2022/01/09 11:29:32;;;;;;;2.23;1.50;;;;;;;;;;6215666;23;20273;-90
2022/01/09 11:32:04;;;;;;;4.40;1.60;;;;;;;;;;6215461;23;20177;-89
2022/01/09 11:34:36;;;;;;;4.03;1.60;;;;;;;;;;6216793;23;20197;-89
2022/01/09 11:37:10;;;;;;;3.70;1.70;;;;;;;;;;6217292;23;20184;-90
2022/01/09 11:39:37;;;;;;;4.83;1.80;;;;;;;;;;6216855;23;20200;-91
2022/01/09 11:42:11;;;;;;;3.33;1.53;;;;;;;;;;6213337;23;20193;-90
2022/01/09 11:44:45;;;;;;;2.43;1.50;;;;;;;;;;6217111;23;20170;-90
2022/01/09 11:47:13;;;;;;;4.90;2.43;;;;;;;;;;6217411;23;20165;-90
2022/01/09 11:49:41;;;;;;;3.33;2.03;;;;;;;;;;6219800;23;20189;-91
2022/01/09 11:52:09;;;;;;;5.47;1.80;;;;;;;;;;6229323;23;20176;-91
2022/01/09 11:54:50;;;;;;;4.40;2.93;;;;;;;;;;6216444;23;20220;-90
2022/01/09 11:57:35;;;;;;;7.40;2.87;;;;;;;;;;6216082;23;20199;-89
2022/01/09 12:00:02;;;;;;;5.30;2.33;;;;;;;;;;6216367;23;20223;-90
2022/01/09 12:02:34;;;;;;;3.90;2.57;;;;;;;;;;6218923;23;20180;-91
2022/01/09 12:05:02;;;;;;;4.73;2.27;;;;;;;;;;6229078;23;20170;-89
2022/01/09 12:08:06;;;;;;;4.87;2.40;;;;;;;;;;6217557;23;20181;-90
2022/01/09 12:10:37;;;;;;;5.07;2.37;;;;;;;;;;6215168;23;20677;-89
2022/01/09 12:13:08;;;;;;;5.63;2.27;;;;;;;;;;6215564;23;20196;-90
2022/01/09 12:15:36;;;;;;;4.10;2.13;;;;;;;;;;6215580;23;20182;-90
2022/01/09 12:18:04;;;;;;;3.17;1.73;;;;;;;;;;6215772;23;20189;-89
2022/01/09 12:20:37;;;;;;;3.80;1.90;;;;;;;;;;6215164;23;20195;-88
2022/01/09 12:23:08;;;;;;;4.37;1.87;;;;;;;;;;6216253;23;20173;-91
2022/01/09 12:25:51;;;;;;;2.77;1.40;;;;;;;;;;6216720;23;20177;-90
2022/01/09 12:28:20;;;;;;;3.53;1.83;;;;;;;;;;6215666;23;20181;-88
2022/01/09 12:30:49;;;;;;;3.50;1.60;;;;;;;;;;6215067;23;20192;-90
2022/01/09 12:33:18;;;;;;;2.87;1.73;;;;;;;;;;6215971;23;20171;-88
2022/01/09 12:35:47;;;;;;;5.10;2.03;;;;;;;;;;6216822;23;20255;-90
2022/01/09 12:38:18;;;;;;;3.20;1.70;;;;;;;;;;6217168;23;20200;-90
2022/01/09 12:40:45;;;;;;;5.17;2.87;;;;;;;;;;6214941;23;20201;-90
2022/01/09 12:43:13;;;;;;;4.87;1.70;;;;;;;;;;6216175;23;20192;-90
2022/01/09 12:45:43;;;;;;;3.73;1.80;;;;;;;;;;6216709;23;20166;-90
2022/01/09 12:48:18;;;;;;;4.33;2.90;;;;;;;;;;6216278;23;20173;-89
2022/01/09 12:50:45;;;;;;;4.90;2.40;;;;;;;;;;6215473;23;20216;-88
2022/01/09 12:53:13;;;;;;;5.70;3.30;;;;;;;;;;6215525;23;20226;-90
2022/01/09 12:55:55;;;;;;;4.60;1.97;;;;;;;;;;6236234;23;20173;-90
2022/01/09 12:58:24;;;;;;;7.23;2.87;;;;;;;;;;6233568;23;20169;-89
2022/01/09 13:00:53;;;;;;;4.50;1.93;;;;;;;;;;6218674;23;20276;-89
2022/01/09 13:03:25;;;;;;;2.80;1.60;;;;;;;;;;6216755;23;20170;-88
2022/01/09 13:05:54;;;;;;;2.40;2.13;;;;;;;;;;6215647;23;20232;-88
2022/01/09 13:08:22;;;;;;;2.70;2.00;;;;;;;;;;6216159;23;20200;-89
2022/01/09 13:10:57;;;;;;;4.27;1.70;;;;;;;;;;6216002;23;20227;-90
2022/01/09 13:13:25;;;;;;;3.17;1.97;;;;;;;;;;6216755;23;20188;-90
2022/01/09 13:15:54;;;;;;;3.07;1.80;;;;;;;;;;6215628;23;20189;-90
2022/01/09 13:18:35;;;;;;;4.10;1.63;;;;;;;;;;6214702;23;20185;-89
2022/01/09 13:21:19;;;;;;;1.60;1.23;;;;;;;;;;6214504;23;20212;-90
2022/01/09 13:23:58;;;;;;;2.87;1.70;;;;;;;;;;6215089;23;20173;-89
2022/01/09 13:26:29;;;;;;;4.77;1.73;;;;;;;;;;6215385;23;20173;-90
2022/01/09 13:28:59;;;;;;;4.37;1.67;;;;;;;;;;6216173;23;20166;-88
2022/01/09 13:31:33;;;;;;;4.57;2.20;;;;;;;;;;6215653;23;20165;-90
2022/01/09 13:34:05;;;;;;;2.73;1.50;;;;;;;;;;6216211;23;20193;-90
2022/01/09 13:36:34;;;;;;;4.53;2.07;;;;;;;;;;6215340;23;20228;-89
2022/01/09 13:39:03;;;;;;;6.17;2.53;;;;;;;;;;6215468;23;20173;-89
2022/01/09 13:41:31;;;;;;;2.63;1.67;;;;;;;;;;6213449;23;20188;-89
2022/01/09 13:43:58;;;;;;;4.13;1.77;;;;;;;;;;6214573;23;20173;-89
2022/01/09 13:46:28;;;;;;;2.47;2.00;;;;;;;;;;6215397;23;20231;-90
2022/01/09 13:48:55;;;;;;;5.67;1.90;;;;;;;;;;6215013;23;20227;-89
2022/01/09 13:51:38;;;;;;;2.27;1.50;;;;;;;;;;6213955;23;20189;-89
2022/01/09 13:54:09;;;;;;;2.03;1.70;;;;;;;;;;6215263;23;20203;-88
2022/01/09 13:56:37;;;;;;;6.87;2.27;;;;;;;;;;6215644;23;20173;-89
2022/01/09 13:59:04;;;;;;;2.40;1.87;;;;;;;;;;6215551;23;20220;-90
2022/01/09 14:01:56;;;;;;;3.17;1.50;;;;;;;;;;6215204;23;20177;-88
2022/01/09 14:04:28;;;;;;;3.17;1.63;;;;;;;;;;6186664;23;20216;-89
2022/01/09 14:07:00;;;;;;;4.93;1.60;;;;;;;;;;6216403;23;20196;-89
2022/01/09 14:09:28;;;;;;;2.47;1.40;;;;;;;;;;6215872;23;20193;-89
2022/01/09 14:11:59;;;;;;;3.40;1.50;;;;;;;;;;6215321;23;20193;-89
2022/01/09 14:14:30;;;;;;;1.70;1.40;;;;;;;;;;6215974;23;20284;-89
2022/01/09 14:16:57;;;;;;;2.60;1.20;;;;;;;;;;6213712;23;20174;-89
2022/01/09 14:19:43;;;;;;;2.87;1.40;;;;;;;;;;6214901;23;20213;-89
2022/01/09 14:22:11;;;;;;;2.50;1.43;;;;;;;;;;6215155;23;20181;-88
2022/01/09 14:24:56;;;;;;;3.40;1.40;;;;;;;;;;6214952;23;20169;-89
2022/01/09 14:27:26;;;;;;;2.93;1.53;;;;;;;;;;6214384;23;20180;-90
2022/01/09 14:29:53;;;;;;;2.50;1.33;;;;;;;;;;6215180;23;20194;-90
2022/01/09 14:32:21;;;;;;;3.30;1.67;;;;;;;;;;6213555;23;20184;-90
2022/01/09 14:34:50;;;;;;;2.87;1.90;;;;;;;;;;6214873;23;20189;-88
2022/01/09 14:37:18;;;;;;;4.70;2.20;;;;;;;;;;6216225;23;20173;-90
2022/01/09 14:39:45;;;;;;;4.37;1.73;;;;;;;;;;6215623;23;20200;-89
2022/01/09 14:42:13;;;;;;;2.57;1.67;;;;;;;;;;6217632;23;20231;-89
2022/01/09 14:44:40;;;;;;;1.73;1.40;;;;;;;;;;6218406;23;20173;-90
2022/01/09 14:47:11;;;;;;;2.70;1.80;;;;;;;;;;6215791;23;20260;-89
2022/01/09 14:49:38;;;;;;;2.40;1.50;;;;;;;;;;6216488;23;20197;-89
2022/01/09 14:52:07;;;;;;;1.80;1.40;;;;;;;;;;6215658;23;20193;-89
2022/01/09 14:54:36;;;;;;;2.97;2.00;;;;;;;;;;6216477;23;20189;-89
2022/01/09 14:57:04;;;;;;;2.63;1.80;;;;;;;;;;6216284;23;20193;-88
2022/01/09 14:59:32;;;;;;;5.00;1.87;;;;;;;;;;6216756;23;20194;-90
2022/01/09 15:02:01;;;;;;;1.40;1.30;;;;;;;;;;6215678;23;20196;-89
2022/01/09 15:04:28;;;;;;;2.63;1.40;;;;;;;;;;6216576;23;20176;-88
2022/01/09 15:06:56;;;;;;;2.73;1.40;;;;;;;;;;6216525;23;20195;-89
2022/01/09 15:09:26;;;;;;;2.40;1.50;;;;;;;;;;6217161;23;20193;-89
2022/01/09 15:11:55;;;;;;;2.80;1.27;;;;;;;;;;6216120;23;20188;-89
2022/01/09 15:14:23;;;;;;;2.53;1.27;;;;;;;;;;6218000;23;20174;-88
2022/01/09 15:16:51;;;;;;;1.97;1.13;;;;;;;;;;6219976;23;20648;-88
2022/01/09 15:19:20;;;;;;;1.50;1.40;;;;;;;;;;6217107;23;20216;-89
2022/01/09 15:21:47;;;;;;;1.10;1.10;;;;;;;;;;6216741;23;20260;-89
2022/01/09 15:24:14;;;;;;;2.70;1.33;;;;;;;;;;6216642;23;20173;-89
2022/01/09 15:26:45;;;;;;;4.17;1.30;;;;;;;;;;6216746;23;20177;-90
2022/01/09 15:29:12;;;;;;;3.30;1.47;;;;;;;;;;6217279;23;20192;-90
2022/01/09 15:31:40;;;;;;;2.40;1.60;;;;;;;;;;6216201;23;20180;-89
2022/01/09 15:34:07;;;;;;;2.87;1.30;;;;;;;;;;6218654;23;20184;-89
2022/01/09 15:36:38;;;;;;;4.60;1.50;;;;;;;;;;6216487;23;20217;-89
2022/01/09 15:44:58;;;;;;;4.53;1.90;;;;;;;;;;6172155;23;20229;-87
2022/01/09 15:47:44;;;;;;;3.43;1.47;;;;;;;;;;6186636;23;20171;-87
2022/01/09 15:50:52;;;;;;;3.70;1.80;;;;;;;;;;6187017;23;20204;-86
2022/01/09 15:56:21;;;;;;;5.57;1.97;;;;;;;;;;6113128;23;20225;-86
2022/01/09 15:59:15;;;;;;;;;;;;;;;;;;;;;
2022/01/09 16:01:58;;;;;;;9.20;3.37;;;;;;;;;;6189438;23;20168;-88
2022/01/09 16:07:13;;;;;;;7.53;2.73;;;;;;;;;;6180871;23;20174;-87
2022/01/09 16:09:48;;;;;;;3.47;2.17;;;;;;;;;;6187150;23;20268;-87
2022/01/09 16:12:35;;;;;;;6.33;2.30;;;;;;;;;;6186863;23;20200;-87
2022/01/09 16:15:07;;;;;;;3.90;2.27;;;;;;;;;;6187420;23;20193;-87
2022/01/09 16:17:52;;;;;;;6.53;2.50;;;;;;;;;;6187606;23;20170;-87
2022/01/09 16:20:30;;;;;;;5.43;2.30;;;;;;;;;;6126468;23;20315;-89
2022/01/09 16:26:04;;;;;;;6.53;2.30;;;;;;;;;;6169033;23;20169;-88
2022/01/09 16:28:53;;;;;;;3.23;2.00;;;;;;;;;;6187924;23;20174;-86
2022/01/09 16:31:23;;;;;;;2.97;1.80;;;;;;;;;;6187863;23;20217;-86
2022/01/09 16:34:31;;;;;;;3.40;2.00;;;;;;;;;;6189411;23;20174;-85
2022/01/09 16:37:15;;;;;;;6.03;3.07;;;;;;;;;;6182607;23;20217;-87
2022/01/09 16:39:58;;;;;;;2.73;1.97;;;;;;;;;;6185541;23;20549;-88
2022/01/09 16:42:35;;;;;;;2.07;1.77;;;;;;;;;;6189457;23;20178;-91
2022/01/09 16:45:16;;;;;;;5.60;1.80;;;;;;;;;;6188063;23;20172;-86
2022/01/09 16:47:59;;;;;;;;;;;;;;;;;;;;;
2022/01/09 16:50:44;;;;;;;3.83;2.90;;;;;;;;;;6185831;23;20197;-86
2022/01/09 16:59:19;;;;;;;;;;;;;;;;;;;;;
2022/01/09 17:01:53;;;;;;;3.90;2.00;;;;;;;;;;6185841;23;20178;-86
2022/01/09 17:04:21;;;;;;;2.77;2.40;;;;;;;;;;6186708;23;20192;-83
2022/01/09 17:06:59;;;;;;;4.20;3.00;;;;;;;;;;6186498;23;20514;-87
2022/01/09 17:09:34;;;;;;;4.70;2.80;;;;;;;;;;6186374;23;20181;-86
2022/01/09 17:12:11;;;;;;;3.83;2.30;;;;;;;;;;6187119;23;20205;-88
2022/01/09 17:14:46;;;;;;;3.60;3.03;;;;;;;;;;6187257;23;20204;-87
2022/01/09 17:17:21;;;;;;;8.93;3.57;;;;;;;;;;6203847;23;20221;-87
2022/01/09 17:19:49;;;;;;;5.07;3.50;;;;;;;;;;6193123;23;20212;-89
2022/01/09 17:22:23;;;;;;;6.77;2.83;;;;;;;;;;6176792;23;20178;-86
2022/01/09 17:24:57;;;;;;;6.30;3.00;;;;;;;;;;6177956;23;20198;-89
2022/01/09 17:30:41;;;;;;;5.07;2.80;;;;;;;;;;6096668;23;20247;-89
2022/01/09 17:33:21;;;;;;;3.30;2.67;;;;;;;;;;6149734;23;20163;-86
2022/01/09 17:35:58;;;;;;;5.90;3.57;;;;;;;;;;6150208;23;20206;-88
2022/01/09 17:38:39;;;;;;;4.83;3.80;;;;;;;;;;6150753;23;20163;-89
2022/01/09 17:41:23;;;;;;;6.03;3.80;;;;;;;;;;6150857;23;20217;-91
2022/01/09 17:43:52;;;;;;;4.63;4.17;;;;;;;;;;6151261;23;20171;-91
2022/01/09 17:46:29;;;;;;;4.90;4.13;;;;;;;;;;6150187;23;20177;-88
2022/01/09 17:48:58;;;;;;;5.23;4.73;;;;;;;;;;6150601;23;20222;-86
2022/01/09 17:51:34;;;;;;;5.43;4.93;;;;;;;;;;6143980;23;20194;-86
2022/01/09 17:54:09;;;;;;;7.17;4.90;;;;;;;;;;6130506;23;20167;-85
2022/01/09 17:57:08;;;;;;;6.20;4.60;;;;;;;;;;6128933;23;20257;-86
2022/01/09 17:59:44;;;;;;;4.80;4.27;;;;;;;;;;6133338;23;20251;-87
2022/01/09 18:02:46;;;;;;;6.93;4.13;;;;;;;;;;6132062;23;20182;-87
2022/01/09 18:05:19;;;;;;;5.67;4.00;;;;;;;;;;6132648;23;20178;-84
2022/01/09 18:08:13;;;;;;;;;;;;;;;;;;;;;
2022/01/09 18:13:25;;;;;;;6.27;3.97;;;;;;;;;;6130815;23;20238;-88
2022/01/09 18:16:00;;;;;;;5.37;3.83;;;;;;;;;;6132863;23;20279;-84
2022/01/09 18:18:30;;;;;;;4.40;4.00;;;;;;;;;;6132787;23;20167;-86
2022/01/09 18:21:00;;;;;;;5.30;3.73;;;;;;;;;;6133140;23;20203;-85
2022/01/09 18:23:39;;;;;;;;;;;;;;;;;;;;;
2022/01/09 18:26:17;;;;;;;4.80;3.70;;;;;;;;;;6132180;23;20155;-83
2022/01/09 18:28:51;;;;;;;7.00;4.00;;;;;;;;;;6131529;23;20194;-85
2022/01/09 18:31:43;;;;;;;5.13;4.63;;;;;;;;;;6130675;23;20195;-87
2022/01/09 18:37:48;;;;;;;8.80;7.13;;;;;;;;;;6132968;23;20199;-84
2022/01/09 18:40:39;;;;;;;9.90;6.37;;;;;;;;;;6137894;23;20196;-84
2022/01/09 18:43:08;;;;;;;7.47;5.97;;;;;;;;;;6138692;23;20227;-82
2022/01/09 18:45:44;;;;;;;11.80;7.63;;;;;;;;;;6134488;23;20190;-86
2022/01/09 18:48:17;;;;;;;12.50;8.33;;;;;;;;;;6133065;23;20171;-85
2022/01/09 18:50:48;;;;;;;9.30;7.77;;;;;;;;;;6132393;23;20195;-82
2022/01/09 18:53:27;;;;;;;10.47;8.40;;;;;;;;;;6131758;23;20631;-83
2022/01/09 18:56:02;;;;;;;9.93;7.40;;;;;;;;;;6131711;23;20191;-83
2022/01/09 18:58:39;;;;;;;11.27;8.20;;;;;;;;;;6133130;23;20165;-83
2022/01/09 19:01:08;;;;;;;11.93;8.93;;;;;;;;;;6131428;23;20274;-84
2022/01/09 19:06:37;;;;;;;11.47;8.60;;;;;;;;;;6041365;23;20654;-84
2022/01/09 19:09:28;;;;;;;13.83;9.23;;;;;;;;;;6043457;23;20174;-84
2022/01/09 19:36:28;;;;;;;10.27;8.03;;;;;;;;;;6093264;23;20223;-82
2022/01/09 19:39:08;;;;;;;6.40;5.50;;;;;;;;;;6014032;23;20197;-84
2022/01/09 19:41:50;;;;;;;6.50;4.90;;;;;;;;;;6091916;23;20259;-83
2022/01/09 19:44:20;;;;;;;6.50;5.13;;;;;;;;;;6098756;23;20272;-84
2022/01/09 19:46:48;;;;;;;8.10;5.57;;;;;;;;;;6097681;23;20176;-84
2022/01/09 19:52:10;;;;;;;7.93;4.80;;;;;;;;;;6085913;23;20251;-83
2022/01/09 19:55:02;;;;;;;7.20;5.37;;;;;;;;;;6094925;23;20387;-83
2022/01/09 19:58:17;;;;;;;5.87;4.57;;;;;;;;;;6039336;23;20196;-82
2022/01/09 20:00:58;;;;;;;5.93;4.93;;;;;;;;;;6066497;23;20193;-81
2022/01/09 20:03:41;;;;;;;5.23;4.73;;;;;;;;;;6154446;23;20186;-81
2022/01/09 20:06:14;;;;;;;7.77;4.83;;;;;;;;;;6158411;23;20163;-83
2022/01/09 20:08:50;;;;;;;7.53;5.17;;;;;;;;;;6159333;23;20187;-81
2022/01/09 20:11:25;;;;;;;5.73;4.87;;;;;;;;;;6157027;23;20206;-84
2022/01/09 20:17:21;;;;;;;;;;;;;;;;;;;;;
2022/01/09 20:20:00;;;;;;;;;;;;;;;;;;;;;
2022/01/09 20:22:49;;;;;;;5.33;3.60;;;;;;;;;;6157417;23;20230;-84
2022/01/09 20:25:24;;;;;;;5.17;3.20;;;;;;;;;;6040636;23;20181;-83
2022/01/09 20:28:00;;;;;;;4.73;3.30;;;;;;;;;;6135897;23;20216;-83
2022/01/09 20:30:30;;;;;;;6.50;3.30;;;;;;;;;;6143156;23;20199;-81
2022/01/09 20:33:06;;;;;;;6.33;3.37;;;;;;;;;;6146582;23;20179;-86
2022/01/09 20:47:45;;;;;;;5.17;3.43;;;;;;;;;;5958394;24;20194;-84
2022/01/09 20:50:26;;;;;;;;;;;;;;;;;;;;;
2022/01/09 20:53:05;;;;;;;4.47;3.40;;;;;;;;;;5993747;23;20308;-86
2022/01/09 20:58:57;;;;;;;4.13;3.10;;;;;;;;;;5944241;24;20172;-85
2022/01/09 21:01:31;;;;;;;4.47;3.37;;;;;;;;;;6012157;23;20197;-86
2022/01/09 21:04:10;;;;;;;4.30;3.90;;;;;;;;;;6027569;23;20177;-85
2022/01/09 21:06:40;;;;;;;5.60;3.47;;;;;;;;;;6028903;23;20188;-85
2022/01/09 21:09:08;;;;;;;6.50;3.67;;;;;;;;;;6028083;23;20181;-87
2022/01/09 21:11:35;;;;;;;5.03;4.00;;;;;;;;;;6027845;23;20203;-87
2022/01/09 21:14:07;;;;;;;5.70;3.70;;;;;;;;;;6028612;23;20178;-85
2022/01/09 21:16:37;;;;;;;5.27;3.70;;;;;;;;;;6135844;23;20195;-85
2022/01/09 21:19:08;;;;;;;4.53;3.33;;;;;;;;;;6145857;23;20186;-85
2022/01/09 21:21:39;;;;;;;5.10;3.63;;;;;;;;;;6144616;23;20167;-85
2022/01/09 21:24:07;;;;;;;5.47;3.57;;;;;;;;;;6145119;23;20166;-86
2022/01/09 21:26:35;;;;;;;6.03;4.13;;;;;;;;;;6141727;23;20189;-85
2022/01/09 21:29:04;;;;;;;5.57;4.13;;;;;;;;;;6140123;23;20242;-83
2022/01/09 21:31:38;;;;;;;5.27;4.20;;;;;;;;;;6137008;23;20255;-85
2022/01/09 21:34:07;;;;;;;6.20;4.20;;;;;;;;;;6137692;23;20174;-85
2022/01/09 21:36:34;;;;;;;4.97;3.77;;;;;;;;;;6137125;23;20190;-85
2022/01/09 21:39:04;;;;;;;5.80;4.00;;;;;;;;;;6137825;23;20182;-85
2022/01/09 21:41:35;;;;;;;5.87;4.20;;;;;;;;;;6152209;23;20206;-87
2022/01/09 21:44:03;;;;;;;6.67;4.17;;;;;;;;;;6168484;23;20229;-87
2022/01/09 21:46:34;;;;;;;8.80;4.10;;;;;;;;;;6170953;23;20175;-87
2022/01/09 21:49:10;;;;;;;5.33;3.80;;;;;;;;;;6170363;23;20174;-86
2022/01/09 21:51:40;;;;;;;4.37;3.53;;;;;;;;;;6170426;23;20241;-87
2022/01/09 21:54:11;;;;;;;4.53;3.50;;;;;;;;;;6170949;23;20254;-86
2022/01/09 21:56:39;;;;;;;4.47;3.27;;;;;;;;;;6169959;23;20190;-87
2022/01/09 21:59:15;;;;;;;4.83;3.80;;;;;;;;;;6170439;23;20185;-87
2022/01/09 22:01:45;;;;;;;4.50;3.20;;;;;;;;;;6169150;23;20194;-87
2022/01/09 22:04:16;;;;;;;5.23;3.30;;;;;;;;;;6169537;23;20175;-87
2022/01/09 22:06:44;;;;;;;4.13;3.33;;;;;;;;;;6169358;23;20159;-86
2022/01/09 22:09:12;;;;;;;6.97;3.40;;;;;;;;;;6170497;23;20175;-87